Time;durP1;ratioP1;P1;durP2;ratioP2;P2;SDS_P1;SDS_P2;PMS_P1;PMS_P2;Temp;Humidity;BMP_temperature;BMP_pressure;BME280_temperature;BME280_humidity;BME280_pressure;Samples;Min_cycle;Max_cycle;Signal;HPM_P1;HPM_P2
2021/01/21 00:03:11;;;;;;;1.85;0.90;;;18.00;60.50;;;;;;10278871;28;20138;-57
2021/01/21 00:08:11;;;;;;;1.58;0.88;;;18.00;60.50;;;;;;10272136;28;20031;-57
2021/01/21 00:13:12;;;;;;;1.42;0.90;;;18.00;61.10;;;;;;10282969;28;20102;-58
2021/01/21 00:18:13;;;;;;;1.15;0.80;;;18.00;60.50;;;;;;10268187;28;20028;-57
2021/01/21 00:23:14;;;;;;;2.58;1.33;;;18.00;60.50;;;;;;10286462;28;20081;-57
2021/01/21 00:28:15;;;;;;;1.40;0.80;;;18.00;60.40;;;;;;10288020;28;20030;-57
2021/01/21 00:33:15;;;;;;;2.08;0.90;;;18.00;60.40;;;;;;10285696;28;20396;-56
2021/01/21 00:38:16;;;;;;;1.63;0.82;;;18.00;60.40;;;;;;10266341;28;20031;-57
2021/01/21 00:43:17;;;;;;;1.48;0.80;;;18.00;60.40;;;;;;10274484;28;20035;-57
2021/01/21 00:48:19;;;;;;;1.63;1.00;;;18.00;60.30;;;;;;10281387;28;20073;-57
2021/01/21 00:53:19;;;;;;;2.25;0.75;;;18.00;60.30;;;;;;10288768;28;20037;-57
2021/01/21 00:58:20;;;;;;;1.73;1.00;;;18.00;60.20;;;;;;10281515;28;20031;-57
2021/01/21 01:03:21;;;;;;;1.92;0.80;;;18.00;60.10;;;;;;10275662;28;20488;-57
2021/01/21 01:08:21;;;;;;;2.38;1.10;;;18.00;60.10;;;;;;10269812;28;20399;-57
2021/01/21 01:13:22;;;;;;;1.42;0.80;;;18.00;60.10;;;;;;10264048;28;20121;-57
2021/01/21 01:18:23;;;;;;;1.65;0.80;;;18.00;60.00;;;;;;10267664;28;20027;-57
2021/01/21 01:23:23;;;;;;;2.72;1.05;;;18.00;60.00;;;;;;10272511;28;20027;-57
2021/01/21 01:28:24;;;;;;;1.17;0.80;;;18.00;59.90;;;;;;10285845;28;20101;-57
2021/01/21 01:33:25;;;;;;;1.65;0.90;;;18.00;59.90;;;;;;10281823;28;20478;-58
2021/01/21 01:38:25;;;;;;;1.50;0.80;;;18.00;59.80;;;;;;10264321;28;20126;-58
2021/01/21 01:43:26;;;;;;;1.10;0.65;;;18.00;59.80;;;;;;10259499;28;20035;-58
2021/01/21 01:48:27;;;;;;;1.27;0.80;;;18.00;59.70;;;;;;10266196;28;20042;-57
2021/01/21 01:53:34;;;;;;;1.30;0.70;;;18.10;59.60;;;;;;10287718;28;20046;-57
2021/01/21 01:58:34;;;;;;;1.58;0.70;;;18.10;59.50;;;;;;10281894;28;20079;-57
2021/01/21 02:03:35;;;;;;;3.63;0.80;;;18.10;59.50;;;;;;10275815;28;20122;-57
2021/01/21 02:08:36;;;;;;;1.40;0.80;;;18.10;59.40;;;;;;10283926;28;20047;-57
2021/01/21 02:13:51;;;;;;;1.35;0.80;;;18.10;59.50;;;;;;10265389;28;20037;-57
2021/01/21 02:19:03;;;;;;;1.27;0.70;;;18.10;59.40;;;;;;10269520;28;20412;-57
2021/01/21 02:25:09;;;;;;;2.05;0.70;;;18.10;59.30;;;;;;10265824;28;20475;-57
2021/01/21 02:30:27;;;;;;;1.70;0.85;;;18.10;59.10;;;;;;10287633;28;20031;-57
2021/01/21 02:35:29;;;;;;;1.15;0.80;;;18.10;59.20;;;;;;10287777;28;20027;-57
2021/01/21 02:40:31;;;;;;;1.08;0.50;;;18.10;59.20;;;;;;10277754;28;20030;-57
2021/01/21 02:45:31;;;;;;;0.73;0.40;;;18.10;59.30;;;;;;10275796;28;20324;-57
2021/01/21 02:50:32;;;;;;;0.77;0.50;;;18.10;59.20;;;;;;10286207;28;20199;-58
2021/01/21 02:55:39;;;;;;;1.92;0.70;;;18.10;59.20;;;;;;10295466;28;20030;-57
2021/01/21 03:00:43;;;;;;;4.63;0.90;;;18.10;59.20;;;;;;10285332;28;20039;-58
2021/01/21 03:05:49;;;;;;;1.08;0.60;;;18.10;59.20;;;;;;10291400;28;20035;-57
2021/01/21 03:10:50;;;;;;;0.88;0.55;;;18.10;59.10;;;;;;10296632;28;20121;-57
2021/01/21 03:15:51;;;;;;;1.85;1.08;;;18.10;59.10;;;;;;10298642;28;20150;-57
2021/01/21 03:20:51;;;;;;;1.88;0.80;;;18.10;59.10;;;;;;10298208;28;20065;-57
2021/01/21 03:25:52;;;;;;;3.38;0.68;;;18.10;59.10;;;;;;10298433;28;20023;-57
2021/01/21 03:30:53;;;;;;;1.13;0.73;;;18.10;59.10;;;;;;10297540;28;20023;-57
2021/01/21 03:35:53;;;;;;;0.88;0.70;;;18.10;59.00;;;;;;10287643;28;20062;-57
2021/01/21 03:40:54;;;;;;;1.13;0.55;;;18.10;59.00;;;;;;10294113;28;20065;-58
2021/01/21 03:45:55;;;;;;;1.17;0.70;;;18.10;59.00;;;;;;10295389;28;20042;-57
2021/01/21 03:50:56;;;;;;;0.95;0.57;;;18.10;59.00;;;;;;10296956;28;20041;-57
2021/01/21 03:55:56;;;;;;;1.05;0.70;;;18.10;59.00;;;;;;10297174;28;20500;-57
2021/01/21 04:00:57;;;;;;;0.75;0.43;;;18.10;59.00;;;;;;10288299;28;20066;-57
2021/01/21 04:05:59;;;;;;;1.38;0.63;;;18.10;59.10;;;;;;10291914;28;20130;-57
2021/01/21 04:10:59;;;;;;;0.50;0.50;;;18.10;59.10;;;;;;10296360;28;20033;-57
2021/01/21 04:16:00;;;;;;;1.48;0.60;;;18.10;59.20;;;;;;10296242;28;20031;-57
2021/01/21 04:21:01;;;;;;;1.80;0.90;;;18.10;59.20;;;;;;10294952;28;20101;-57
2021/01/21 04:26:03;;;;;;;1.27;0.70;;;18.10;59.30;;;;;;10295957;28;20574;-57
2021/01/21 04:31:04;;;;;;;1.13;0.60;;;18.10;59.40;;;;;;10295620;28;20035;-58
2021/01/21 04:36:06;;;;;;;1.08;0.50;;;18.10;59.50;;;;;;10288041;28;20031;-57
2021/01/21 04:41:07;;;;;;;0.60;0.60;;;18.10;59.50;;;;;;10289623;28;20117;-58
2021/01/21 04:46:08;;;;;;;1.83;0.70;;;18.10;59.60;;;;;;10294893;28;20113;-57
2021/01/21 04:51:10;;;;;;;1.80;0.70;;;18.10;59.70;;;;;;10293488;28;20117;-57
2021/01/21 04:56:27;;;;;;;1.20;0.70;;;18.10;59.70;;;;;;10292560;28;20031;-58
2021/01/21 05:01:31;;;;;;;1.45;0.55;;;18.10;59.80;;;;;;10281539;28;20065;-57
2021/01/21 05:06:32;;;;;;;0.75;0.43;;;18.10;59.80;;;;;;10281257;28;20046;-57
2021/01/21 05:11:33;;;;;;;1.23;0.52;;;18.10;59.90;;;;;;10291467;28;20077;-58
2021/01/21 05:16:36;;;;;;;0.88;0.50;;;18.10;59.90;;;;;;10292270;28;20039;-58
2021/01/21 05:21:39;;;;;;;1.05;0.60;;;18.10;59.90;;;;;;10289895;28;20034;-57
2021/01/21 05:26:44;;;;;;;1.95;0.50;;;18.10;60.00;;;;;;10293516;28;20113;-57
2021/01/21 05:31:46;;;;;;;1.05;0.85;;;18.10;60.00;;;;;;10291965;28;20027;-57
2021/01/21 05:36:47;;;;;;;0.90;0.50;;;18.10;60.10;;;;;;10286747;28;20085;-57
2021/01/21 05:41:48;;;;;;;1.02;0.50;;;18.10;60.00;;;;;;10286301;28;20603;-57
2021/01/21 05:46:51;;;;;;;0.80;0.45;;;18.10;60.10;;;;;;10291698;28;20126;-57
2021/01/21 05:51:55;;;;;;;1.17;0.60;;;18.10;60.10;;;;;;10292640;28;20596;-58
2021/01/21 05:57:01;;;;;;;1.58;0.65;;;18.10;60.10;;;;;;10290311;28;20031;-57
2021/01/21 06:02:04;;;;;;;0.57;0.40;;;18.10;60.10;;;;;;10283866;28;20059;-58
2021/01/21 06:07:04;;;;;;;1.63;0.70;;;18.10;60.10;;;;;;10279890;28;20674;-57
2021/01/21 06:12:06;;;;;;;0.38;0.30;;;18.10;60.10;;;;;;10287355;28;20133;-57
2021/01/21 06:17:07;;;;;;;1.13;0.50;;;18.10;60.20;;;;;;10270964;28;20035;-58
2021/01/21 06:22:09;;;;;;;9.45;1.13;;;18.10;60.60;;;;;;10275074;28;20027;-57
2021/01/21 06:27:13;;;;;;;4.45;0.60;;;18.10;61.60;;;;;;10272507;28;20030;-57
2021/01/21 06:32:16;;;;;;;2.28;0.40;;;18.10;61.80;;;;;;10271440;28;20022;-57
2021/01/21 06:37:21;;;;;;;6.13;0.70;;;18.10;62.10;;;;;;10281260;28;20061;-58
2021/01/21 06:42:36;;;;;;;6.43;0.73;;;18.10;62.00;;;;;;10281414;28;20023;-57
2021/01/21 06:47:36;;;;;;;6.60;0.70;;;18.20;61.80;;;;;;10281824;28;20058;-58
2021/01/21 06:52:38;;;;;;;2.42;0.60;;;18.20;61.80;;;;;;10290254;28;20031;-58
2021/01/21 06:57:39;;;;;;;4.55;0.70;;;18.20;61.70;;;;;;10280128;28;20379;-57
2021/01/21 07:02:49;;;;;;;1.40;0.50;;;18.20;61.80;;;;;;10281468;28;20043;-58
2021/01/21 07:07:53;;;;;;;6.72;1.10;;;18.10;61.70;;;;;;10275609;28;20030;-58
2021/01/21 07:12:55;;;;;;;2.10;0.77;;;18.10;61.60;;;;;;10271851;28;20023;-58
2021/01/21 07:18:04;;;;;;;5.50;1.08;;;18.10;61.40;;;;;;10266663;28;20036;-58
2021/01/21 07:23:06;;;;;;;1.92;0.50;;;18.20;61.20;;;;;;10267059;28;20190;-57
2021/01/21 07:28:09;;;;;;;2.20;0.52;;;18.20;61.00;;;;;;10277558;28;20026;-57
2021/01/21 07:33:21;;;;;;;5.00;1.25;;;18.30;60.80;;;;;;10285107;28;20027;-58
2021/01/21 07:38:40;;;;;;;4.30;0.60;;;18.20;60.70;;;;;;10285020;28;20042;-58
2021/01/21 07:43:57;;;;;;;3.03;0.60;;;18.20;60.70;;;;;;10289393;28;20033;-57
2021/01/21 07:49:21;;;;;;;2.58;0.60;;;18.10;60.80;;;;;;10291844;28;20578;-56
2021/01/21 07:54:22;;;;;;;2.90;0.80;;;18.10;60.70;;;;;;10296440;28;20353;-58
2021/01/21 07:59:23;;;;;;;2.63;0.40;;;18.10;60.70;;;;;;10292315;28;20519;-58
2021/01/21 08:04:25;;;;;;;2.10;0.80;;;18.10;60.50;;;;;;10291925;28;20105;-58
2021/01/21 08:09:26;;;;;;;1.33;0.55;;;18.10;60.60;;;;;;10296227;28;20495;-58
2021/01/21 08:14:31;;;;;;;8.10;1.73;;;18.10;60.60;;;;;;10295902;28;20082;-57
2021/01/21 08:19:38;;;;;;;3.00;1.17;;;18.10;60.40;;;;;;10295659;28;20118;-58
2021/01/21 08:24:59;;;;;;;1.52;0.50;;;18.10;60.30;;;;;;10294724;28;20105;-58
2021/01/21 08:30:20;;;;;;;2.45;0.60;;;18.10;60.40;;;;;;10295131;28;20022;-57
2021/01/21 08:35:26;;;;;;;1.25;0.60;;;18.10;60.30;;;;;;10292694;28;20055;-58
2021/01/21 08:40:28;;;;;;;5.15;0.75;;;18.10;60.20;;;;;;10292170;28;20035;-58
2021/01/21 08:45:29;;;;;;;1.67;0.45;;;18.10;60.10;;;;;;10289316;28;20530;-57
2021/01/21 08:50:40;;;;;;;2.75;0.90;;;18.10;59.90;;;;;;10294607;28;20030;-58
2021/01/21 08:55:47;;;;;;;2.55;0.80;;;18.10;59.90;;;;;;10294113;28;20462;-57
2021/01/21 09:01:10;;;;;;;1.40;0.55;;;18.00;59.70;;;;;;10289383;28;20067;-58
2021/01/21 09:06:12;;;;;;;3.72;0.80;;;18.10;59.50;;;;;;10291755;28;20043;-57
2021/01/21 09:11:38;;;;;;;4.38;0.70;;;18.10;59.40;;;;;;10283123;28;20034;-57
2021/01/21 09:16:55;;;;;;;2.90;1.05;;;18.10;59.30;;;;;;10270492;28;20037;-58
2021/01/21 09:22:12;;;;;;;4.10;0.90;;;18.10;59.20;;;;;;10265647;28;20073;-58
2021/01/21 09:27:17;;;;;;;3.65;1.45;;;18.10;59.00;;;;;;10290320;28;20062;-58
2021/01/21 09:32:26;;;;;;;4.13;0.88;;;18.00;59.00;;;;;;10288140;28;20046;-57
2021/01/21 09:37:32;;;;;;;1.92;0.65;;;18.00;59.00;;;;;;10286238;28;20494;-57
2021/01/21 09:42:33;;;;;;;2.45;0.90;;;18.00;59.00;;;;;;10282650;28;20027;-57
2021/01/21 09:47:34;;;;;;;4.80;1.42;;;17.90;59.10;;;;;;10273179;28;20038;-57
2021/01/21 09:52:35;;;;;;;2.85;0.70;;;17.90;59.30;;;;;;10266339;28;20031;-57
2021/01/21 09:57:36;;;;;;;2.65;0.80;;;17.90;59.50;;;;;;10265822;28;20053;-57
2021/01/21 10:02:37;;;;;;;5.28;1.02;;;17.80;59.50;;;;;;10289946;28;20038;-57
2021/01/21 10:07:38;;;;;;;2.67;0.80;;;17.80;59.50;;;;;;10291436;28;20034;-57
2021/01/21 10:12:39;;;;;;;5.28;0.90;;;17.80;59.80;;;;;;10291897;28;20367;-58
2021/01/21 10:17:39;;;;;;;3.05;1.17;;;17.70;59.70;;;;;;10285482;28;20027;-57
2021/01/21 10:22:40;;;;;;;3.00;0.82;;;17.70;59.60;;;;;;10291209;28;20101;-58
2021/01/21 10:27:41;;;;;;;3.13;0.85;;;17.70;59.70;;;;;;10290894;28;20559;-57
2021/01/21 10:32:41;;;;;;;2.10;0.95;;;17.70;59.80;;;;;;10285515;28;20027;-57
2021/01/21 10:37:42;;;;;;;2.22;1.00;;;17.70;59.60;;;;;;10282694;28;20031;-58
2021/01/21 10:42:43;;;;;;;1.73;1.00;;;17.70;59.80;;;;;;10276932;28;20051;-58
2021/01/21 10:47:43;;;;;;;2.65;0.80;;;17.70;59.80;;;;;;10271535;28;20429;-56
2021/01/21 10:52:44;;;;;;;2.75;1.45;;;17.70;59.70;;;;;;10278908;28;20109;-56
2021/01/21 10:57:45;;;;;;;2.13;0.88;;;17.80;59.70;;;;;;10295005;28;20059;-57
2021/01/21 11:02:45;;;;;;;1.95;0.65;;;17.80;59.60;;;;;;10296942;28;20098;-57
2021/01/21 11:07:46;;;;;;;2.95;0.70;;;17.80;59.60;;;;;;10291961;28;20105;-57
2021/01/21 11:12:48;;;;;;;4.28;1.23;;;17.90;59.60;;;;;;10297984;28;20026;-57
2021/01/21 11:17:49;;;;;;;3.70;0.95;;;17.90;59.40;;;;;;10297285;28;20086;-57
2021/01/21 11:22:50;;;;;;;2.65;0.63;;;17.90;59.50;;;;;;10277342;28;20074;-57
2021/01/21 11:27:51;;;;;;;1.90;0.70;;;17.90;59.60;;;;;;10288599;28;20117;-57
2021/01/21 11:32:52;;;;;;;2.60;1.00;;;17.80;59.60;;;;;;10294163;28;20033;-56
2021/01/21 11:37:53;;;;;;;2.92;0.68;;;17.80;59.70;;;;;;10293018;28;20399;-57
2021/01/21 11:42:54;;;;;;;2.13;0.93;;;17.80;59.60;;;;;;10296796;28;20085;-57
2021/01/21 11:47:55;;;;;;;3.53;1.10;;;17.80;59.50;;;;;;10296648;28;20033;-57
2021/01/21 11:52:55;;;;;;;2.50;0.70;;;17.90;59.60;;;;;;10296304;28;20109;-57
2021/01/21 11:57:56;;;;;;;3.00;0.65;;;17.90;59.50;;;;;;10289426;28;20142;-56
2021/01/21 12:02:57;;;;;;;1.85;0.70;;;17.90;59.40;;;;;;10295828;28;20046;-57
2021/01/21 12:07:57;;;;;;;1.95;0.77;;;17.90;59.40;;;;;;10295956;28;20487;-56
2021/01/21 12:12:58;;;;;;;2.25;0.60;;;17.90;59.60;;;;;;10295525;28;20571;-56
2021/01/21 12:17:59;;;;;;;2.70;0.70;;;17.90;59.60;;;;;;10295556;28;20054;-57
2021/01/21 12:22:59;;;;;;;3.58;1.08;;;17.80;59.60;;;;;;10294376;28;20062;-58
2021/01/21 12:28:00;;;;;;;1.58;0.65;;;17.80;59.70;;;;;;10294783;28;20105;-57
2021/01/21 12:33:01;;;;;;;1.52;0.60;;;17.80;59.80;;;;;;10281642;28;20480;-57
2021/01/21 12:38:02;;;;;;;1.45;0.60;;;17.70;60.00;;;;;;10278108;28;20491;-57
2021/01/21 12:43:02;;;;;;;3.10;0.88;;;17.70;60.30;;;;;;10274917;28;20027;-57
2021/01/21 12:48:03;;;;;;;1.15;0.68;;;17.70;60.40;;;;;;10279878;28;20447;-57
2021/01/21 12:53:05;;;;;;;3.50;0.80;;;17.60;60.50;;;;;;10275226;28;20029;-58
2021/01/21 12:58:06;;;;;;;2.75;0.90;;;17.60;60.60;;;;;;10287665;28;20110;-57
2021/01/21 13:03:06;;;;;;;2.42;1.02;;;17.60;60.70;;;;;;10278586;28;20395;-57
2021/01/21 13:08:07;;;;;;;1.02;0.50;;;17.60;60.70;;;;;;10271497;28;20027;-56
2021/01/21 13:13:08;;;;;;;3.65;0.90;;;17.60;60.60;;;;;;10288905;28;20074;-55
2021/01/21 13:18:09;;;;;;;2.35;0.73;;;17.60;60.70;;;;;;10293393;28;20106;-57
2021/01/21 13:23:09;;;;;;;2.72;0.63;;;17.70;61.90;;;;;;10293506;28;20033;-56
2021/01/21 13:28:10;;;;;;;2.92;0.60;;;17.70;62.10;;;;;;10293364;28;20105;-56
2021/01/21 13:33:11;;;;;;;1.80;0.73;;;17.70;62.10;;;;;;10287189;28;20117;-57
2021/01/21 13:38:12;;;;;;;3.60;0.65;;;17.70;62.30;;;;;;10283352;28;20035;-58
2021/01/21 13:43:13;;;;;;;1.80;0.80;;;17.70;62.90;;;;;;10277416;28;20023;-58
2021/01/21 13:48:13;;;;;;;3.42;0.70;;;17.70;63.00;;;;;;10286443;28;20502;-57
2021/01/21 13:53:14;;;;;;;3.13;0.98;;;17.70;62.80;;;;;;10272934;28;20158;-55
2021/01/21 13:58:15;;;;;;;2.55;0.47;;;17.70;62.20;;;;;;10273207;28;20039;-57
2021/01/21 14:03:15;;;;;;;1.52;0.70;;;17.70;61.80;;;;;;10268399;28;20070;-56
2021/01/21 14:08:16;;;;;;;2.97;0.77;;;17.70;61.70;;;;;;10291532;28;20110;-57
2021/01/21 14:13:18;;;;;;;1.90;0.68;;;17.80;61.50;;;;;;10291498;28;20094;-57
2021/01/21 14:18:19;;;;;;;1.30;0.43;;;17.80;61.30;;;;;;10291613;28;20029;-57
2021/01/21 14:23:20;;;;;;;1.90;0.68;;;17.80;61.30;;;;;;10291441;28;20019;-57
2021/01/21 14:28:21;;;;;;;1.63;0.60;;;17.70;61.90;;;;;;10297965;28;20041;-56
2021/01/21 14:33:22;;;;;;;1.10;0.50;;;17.70;61.20;;;;;;10294023;28;20118;-56
2021/01/21 14:38:23;;;;;;;2.55;1.00;;;17.80;61.10;;;;;;10290322;28;20027;-56
2021/01/21 14:43:24;;;;;;;2.95;0.70;;;17.80;61.00;;;;;;10305900;28;20106;-56
2021/01/21 14:48:24;;;;;;;1.00;0.60;;;17.80;61.00;;;;;;10298844;28;20113;-56
2021/01/21 14:53:25;;;;;;;2.92;0.82;;;17.80;61.00;;;;;;10298857;28;20117;-56
2021/01/21 14:58:26;;;;;;;1.95;0.80;;;17.80;60.90;;;;;;10297560;28;20118;-56
2021/01/21 15:03:26;;;;;;;0.98;0.50;;;17.80;60.90;;;;;;10298539;28;20078;-56
2021/01/21 15:08:27;;;;;;;1.10;0.50;;;17.90;60.90;;;;;;10298487;28;20397;-57
2021/01/21 15:13:31;;;;;;;1.48;0.50;;;17.90;60.90;;;;;;10290897;28;20161;-56
2021/01/21 15:18:31;;;;;;;1.75;0.50;;;17.90;60.80;;;;;;10298075;28;20033;-56
2021/01/21 15:23:33;;;;;;;1.30;0.47;;;17.90;60.80;;;;;;10297824;28;20062;-56
2021/01/21 15:28:34;;;;;;;2.88;0.73;;;17.90;60.80;;;;;;10296863;28;20110;-56
2021/01/21 15:33:35;;;;;;;2.97;0.80;;;17.90;60.80;;;;;;10297829;28;20035;-56
2021/01/21 15:38:35;;;;;;;0.90;0.80;;;17.90;60.80;;;;;;10291766;28;20118;-55
2021/01/21 15:43:36;;;;;;;1.67;0.60;;;17.90;60.80;;;;;;10292881;28;20035;-56
2021/01/21 15:48:37;;;;;;;2.75;0.77;;;17.90;61.30;;;;;;10295896;28;20126;-56
2021/01/21 15:53:38;;;;;;;1.60;0.75;;;17.90;60.80;;;;;;10293834;28;20042;-56
2021/01/21 15:58:38;;;;;;;2.15;1.08;;;17.90;60.70;;;;;;10288085;28;20027;-56
2021/01/21 16:03:39;;;;;;;1.10;0.52;;;17.90;60.70;;;;;;10293822;28;20067;-56
2021/01/21 16:08:39;;;;;;;1.48;0.43;;;17.90;60.70;;;;;;10297696;28;20070;-57
2021/01/21 16:13:43;;;;;;;1.85;0.52;;;17.90;60.80;;;;;;10275449;28;20058;-57
2021/01/21 16:18:44;;;;;;;1.95;0.47;;;17.90;61.00;;;;;;10289905;28;20095;-57
2021/01/21 16:23:46;;;;;;;2.63;1.05;;;18.00;61.00;;;;;;10295104;28;20115;-57
2021/01/21 16:28:46;;;;;;;2.92;0.80;;;18.00;61.00;;;;;;10291284;28;20034;-56
2021/01/21 16:33:47;;;;;;;1.00;0.50;;;18.00;61.10;;;;;;10287922;28;20027;-57
2021/01/21 16:38:48;;;;;;;2.00;0.73;;;18.00;60.90;;;;;;10282668;28;20534;-56
2021/01/21 16:43:48;;;;;;;1.33;0.60;;;18.00;61.40;;;;;;10276555;28;20034;-58
2021/01/21 16:48:49;;;;;;;1.63;0.60;;;18.00;60.70;;;;;;10286566;28;20113;-56
2021/01/21 16:53:50;;;;;;;3.08;0.90;;;18.00;60.70;;;;;;10287094;28;20086;-56
2021/01/21 16:58:50;;;;;;;0.77;0.40;;;18.00;60.60;;;;;;10284307;28;20031;-57
2021/01/21 17:03:51;;;;;;;1.20;0.45;;;18.00;60.60;;;;;;10277169;28;20073;-56
2021/01/21 17:08:55;;;;;;;1.40;0.40;;;18.00;60.60;;;;;;10264164;28;20366;-57
2021/01/21 17:13:56;;;;;;;4.28;1.20;;;18.00;60.60;;;;;;10287897;28;20110;-54
2021/01/21 17:18:57;;;;;;;6.13;2.22;;;17.90;60.60;;;;;;10285239;28;20042;-57
2021/01/21 17:23:58;;;;;;;9.18;1.80;;;18.00;60.50;;;;;;10289088;28;20103;-56
2021/01/21 17:28:58;;;;;;;8.52;2.28;;;17.90;60.00;;;;;;10287410;28;20093;-56
2021/01/21 17:33:59;;;;;;;7.93;2.15;;;18.00;60.00;;;;;;10290907;28;20058;-56
2021/01/21 17:39:00;;;;;;;7.55;2.08;;;18.00;59.90;;;;;;10290613;28;20035;-56
2021/01/21 17:44:01;;;;;;;5.95;1.70;;;18.10;62.10;;;;;;10293398;28;20101;-57
2021/01/21 17:49:02;;;;;;;9.10;2.67;;;18.10;63.50;;;;;;10293077;28;20053;-56
2021/01/21 17:54:02;;;;;;;8.00;1.50;;;18.20;63.00;;;;;;10288194;28;20109;-57
2021/01/21 17:59:03;;;;;;;7.60;2.35;;;18.10;63.00;;;;;;10286265;28;20109;-57
2021/01/21 18:04:04;;;;;;;6.03;1.63;;;18.10;63.50;;;;;;10298598;28;20125;-58
2021/01/21 18:09:07;;;;;;;9.80;1.63;;;18.10;62.40;;;;;;10292859;28;20454;-60
2021/01/21 18:14:08;;;;;;;3.35;1.52;;;18.10;62.50;;;;;;10284216;28;20031;-61
2021/01/21 18:19:09;;;;;;;9.23;1.50;;;18.00;62.30;;;;;;10283958;28;20038;-61
2021/01/21 18:24:10;;;;;;;7.95;1.50;;;17.90;62.50;;;;;;10292237;28;20019;-61
2021/01/21 18:29:11;;;;;;;6.28;1.70;;;17.90;62.60;;;;;;10288743;28;20035;-60
2021/01/21 18:34:11;;;;;;;5.53;1.70;;;17.80;62.30;;;;;;10284544;28;20026;-61
2021/01/21 18:39:12;;;;;;;6.72;1.60;;;17.80;63.00;;;;;;10278026;28;20687;-61
2021/01/21 18:44:13;;;;;;;4.60;1.10;;;17.80;62.50;;;;;;10286289;28;20494;-61
2021/01/21 18:49:13;;;;;;;6.45;1.67;;;17.80;62.30;;;;;;10303923;28;20460;-61
2021/01/21 18:54:14;;;;;;;5.78;1.45;;;17.80;62.20;;;;;;10287149;28;20038;-60
2021/01/21 18:59:18;;;;;;;2.70;1.10;;;17.80;62.20;;;;;;10280565;28;20085;-62
2021/01/21 19:04:18;;;;;;;4.60;1.15;;;17.80;62.70;;;;;;10288494;28;20043;-59
2021/01/21 19:09:20;;;;;;;8.35;1.67;;;17.70;63.30;;;;;;10290970;28;20673;-59
2021/01/21 19:14:20;;;;;;;5.15;1.40;;;17.80;62.90;;;;;;10296162;28;20054;-62
2021/01/21 19:19:21;;;;;;;5.30;1.23;;;17.80;62.50;;;;;;10298052;28;20476;-62
2021/01/21 19:24:21;;;;;;;7.30;1.15;;;17.80;62.30;;;;;;10297323;28;20054;-61
2021/01/21 19:29:22;;;;;;;5.93;1.23;;;17.80;62.20;;;;;;10296925;28;20117;-62
2021/01/21 19:34:23;;;;;;;5.75;1.45;;;17.80;62.40;;;;;;10298300;28;20034;-62
2021/01/21 19:39:24;;;;;;;3.30;1.08;;;17.80;62.50;;;;;;10291124;28;20046;-62
2021/01/21 19:44:26;;;;;;;4.78;1.52;;;17.80;62.50;;;;;;10273655;28;20033;-61
2021/01/21 19:49:26;;;;;;;2.60;0.80;;;17.80;62.50;;;;;;10283208;28;20070;-61
2021/01/21 19:54:27;;;;;;;5.80;0.95;;;17.80;62.60;;;;;;10286401;28;20062;-62
2021/01/21 19:59:28;;;;;;;5.45;1.00;;;17.90;62.60;;;;;;10279045;28;20043;-61
2021/01/21 20:04:29;;;;;;;3.15;0.95;;;17.90;62.90;;;;;;10293014;28;20062;-63
2021/01/21 20:09:29;;;;;;;5.13;1.08;;;17.90;63.10;;;;;;10290103;28;20110;-62
2021/01/21 20:14:30;;;;;;;7.97;1.75;;;17.90;63.00;;;;;;10274704;28;20058;-64
2021/01/21 20:19:31;;;;;;;8.45;1.17;;;17.80;62.60;;;;;;10290300;28;20059;-62
2021/01/21 20:24:32;;;;;;;5.63;1.00;;;17.80;62.50;;;;;;10290396;28;20507;-62
2021/01/21 20:29:33;;;;;;;3.70;1.60;;;17.80;62.40;;;;;;10287798;28;20026;-61
2021/01/21 20:34:33;;;;;;;4.68;1.35;;;17.90;62.50;;;;;;10291290;28;20038;-62
2021/01/21 20:39:34;;;;;;;3.95;0.98;;;17.90;62.50;;;;;;10295125;28;20069;-63
2021/01/21 20:44:35;;;;;;;3.58;1.30;;;17.90;62.70;;;;;;10295385;28;20368;-62
2021/01/21 20:49:36;;;;;;;3.17;0.75;;;17.90;62.70;;;;;;10307710;28;20162;-60
2021/01/21 20:54:36;;;;;;;3.03;1.08;;;17.90;62.60;;;;;;10291360;28;20487;-61
2021/01/21 20:59:37;;;;;;;2.42;1.05;;;17.90;62.50;;;;;;10290879;28;20041;-61
2021/01/21 21:04:38;;;;;;;3.60;0.90;;;17.80;62.50;;;;;;10292388;28;20137;-61
2021/01/21 21:09:39;;;;;;;5.60;1.10;;;17.80;62.30;;;;;;10287319;28;20142;-61
2021/01/21 21:14:39;;;;;;;3.97;1.23;;;17.90;62.30;;;;;;10289681;28;20022;-61
2021/01/21 21:19:40;;;;;;;2.78;1.00;;;17.90;62.20;;;;;;10292375;28;20031;-61
2021/01/21 21:24:41;;;;;;;5.18;0.63;;;17.90;62.10;;;;;;10288886;28;20125;-61
2021/01/21 21:29:41;;;;;;;2.97;0.70;;;17.90;62.00;;;;;;10289103;28;20036;-61
2021/01/21 21:34:42;;;;;;;2.38;0.80;;;17.90;62.00;;;;;;10287079;28;20066;-61
2021/01/21 21:39:43;;;;;;;6.25;0.93;;;17.90;62.00;;;;;;10282283;28;20114;-62
2021/01/21 21:44:44;;;;;;;2.88;0.80;;;17.80;61.80;;;;;;10288249;28;20031;-61
2021/01/21 21:49:44;;;;;;;2.47;0.95;;;17.90;62.40;;;;;;10292174;28;20522;-61
2021/01/21 21:54:48;;;;;;;2.50;0.75;;;17.90;61.70;;;;;;10289630;28;20464;-61
2021/01/21 21:59:49;;;;;;;2.65;1.02;;;17.80;61.60;;;;;;10292090;28;20069;-61
2021/01/21 22:04:49;;;;;;;4.88;0.60;;;17.90;61.50;;;;;;10292229;28;20066;-61
2021/01/21 22:09:50;;;;;;;2.60;0.70;;;17.90;61.50;;;;;;10292197;28;20109;-61
2021/01/21 22:14:51;;;;;;;4.28;1.90;;;17.90;61.30;;;;;;10292485;28;20097;-61
2021/01/21 22:19:52;;;;;;;2.85;1.05;;;17.80;61.30;;;;;;10292320;28;20058;-61
2021/01/21 22:24:53;;;;;;;2.83;0.80;;;17.80;61.20;;;;;;10287246;28;20484;-61
2021/01/21 22:29:53;;;;;;;2.80;0.80;;;17.80;61.10;;;;;;10286165;28;20086;-61
2021/01/21 22:34:54;;;;;;;1.50;0.65;;;17.80;61.10;;;;;;10291987;28;20387;-61
2021/01/21 22:39:55;;;;;;;1.15;0.60;;;17.80;61.00;;;;;;10287130;28;20492;-61
2021/01/21 22:44:55;;;;;;;2.05;0.75;;;17.80;61.00;;;;;;10274420;28;20027;-61
2021/01/21 22:49:56;;;;;;;1.42;0.60;;;17.80;61.00;;;;;;10299719;28;20095;-61
2021/01/21 22:54:57;;;;;;;1.42;0.55;;;17.80;60.90;;;;;;10290782;28;20031;-61
2021/01/21 22:59:58;;;;;;;1.80;0.90;;;17.80;60.90;;;;;;10299253;28;20039;-62
2021/01/21 23:04:59;;;;;;;3.35;0.88;;;17.80;60.80;;;;;;10298909;28;20487;-61
2021/01/21 23:10:01;;;;;;;2.25;0.80;;;17.90;60.90;;;;;;10299228;28;20057;-61
2021/01/21 23:15:03;;;;;;;2.90;0.95;;;17.80;60.70;;;;;;10298823;28;20037;-61
2021/01/21 23:20:05;;;;;;;1.67;0.63;;;17.80;60.70;;;;;;10276058;28;20117;-61
2021/01/21 23:25:07;;;;;;;0.77;0.45;;;17.90;60.70;;;;;;10296365;28;20186;-61
2021/01/21 23:30:09;;;;;;;2.00;0.60;;;17.90;60.70;;;;;;10298261;28;20023;-61
2021/01/21 23:35:11;;;;;;;1.30;0.47;;;17.90;60.60;;;;;;10298002;28;20046;-61
2021/01/21 23:40:13;;;;;;;1.63;0.73;;;18.00;60.60;;;;;;10293451;28;20364;-62
2021/01/21 23:45:14;;;;;;;1.08;0.65;;;18.00;60.60;;;;;;10296070;28;20026;-61
2021/01/21 23:50:15;;;;;;;2.88;0.80;;;18.00;60.60;;;;;;10296021;28;20035;-61
2021/01/21 23:55:16;;;;;;;1.13;0.60;;;18.00;60.60;;;;;;10293711;28;20073;-61
